sensor_id;sensor_type;location;lat;lon;timestamp;P1;durP1;ratioP1;P2;durP2;ratioP2
13847;SDS011;6994;49.752;6.094;2023-01-31T00:00:16;13.65;;;4.97;;
13847;SDS011;6994;49.752;6.094;2023-01-31T00:02:43;15.52;;;4.57;;
13847;SDS011;6994;49.752;6.094;2023-01-31T00:05:11;10.32;;;3.90;;
13847;SDS011;6994;49.752;6.094;2023-01-31T00:07:39;14.90;;;4.95;;
13847;SDS011;6994;49.752;6.094;2023-01-31T00:10:07;16.95;;;5.12;;
13847;SDS011;6994;49.752;6.094;2023-01-31T00:12:34;18.20;;;5.75;;
13847;SDS011;6994;49.752;6.094;2023-01-31T00:15:01;19.52;;;6.05;;
13847;SDS011;6994;49.752;6.094;2023-01-31T00:17:28;23.10;;;8.27;;
13847;SDS011;6994;49.752;6.094;2023-01-31T00:19:56;18.00;;;6.25;;
13847;SDS011;6994;49.752;6.094;2023-01-31T00:22:23;17.85;;;5.72;;
13847;SDS011;6994;49.752;6.094;2023-01-31T00:24:50;13.20;;;5.35;;
13847;SDS011;6994;49.752;6.094;2023-01-31T00:27:17;11.77;;;5.10;;
13847;SDS011;6994;49.752;6.094;2023-01-31T00:29:44;23.02;;;5.65;;
13847;SDS011;6994;49.752;6.094;2023-01-31T00:32:12;13.35;;;5.28;;
13847;SDS011;6994;49.752;6.094;2023-01-31T00:34:39;15.13;;;5.50;;
13847;SDS011;6994;49.752;6.094;2023-01-31T00:37:06;12.98;;;4.87;;
13847;SDS011;6994;49.752;6.094;2023-01-31T00:39:33;15.50;;;4.93;;
13847;SDS011;6994;49.752;6.094;2023-01-31T00:42:00;14.55;;;4.65;;
13847;SDS011;6994;49.752;6.094;2023-01-31T00:44:28;11.20;;;5.00;;
13847;SDS011;6994;49.752;6.094;2023-01-31T00:46:55;11.20;;;4.65;;
13847;SDS011;6994;49.752;6.094;2023-01-31T00:49:23;17.83;;;6.93;;
13847;SDS011;6994;49.752;6.094;2023-01-31T00:51:51;16.85;;;5.40;;
13847;SDS011;6994;49.752;6.094;2023-01-31T00:54:19;13.80;;;5.25;;
13847;SDS011;6994;49.752;6.094;2023-01-31T00:56:46;13.15;;;4.03;;
13847;SDS011;6994;49.752;6.094;2023-01-31T00:59:13;15.25;;;4.78;;
13847;SDS011;6994;49.752;6.094;2023-01-31T01:01:41;12.75;;;3.87;;
13847;SDS011;6994;49.752;6.094;2023-01-31T01:04:09;9.80;;;4.40;;
13847;SDS011;6994;49.752;6.094;2023-01-31T01:06:37;20.42;;;5.37;;
13847;SDS011;6994;49.752;6.094;2023-01-31T01:09:04;16.08;;;5.10;;
13847;SDS011;6994;49.752;6.094;2023-01-31T01:11:32;12.07;;;4.70;;
13847;SDS011;6994;49.752;6.094;2023-01-31T01:13:59;27.42;;;5.45;;
13847;SDS011;6994;49.752;6.094;2023-01-31T01:16:27;12.43;;;4.62;;
13847;SDS011;6994;49.752;6.094;2023-01-31T01:18:53;15.00;;;4.97;;
13847;SDS011;6994;49.752;6.094;2023-01-31T01:21:24;15.95;;;5.50;;
13847;SDS011;6994;49.752;6.094;2023-01-31T01:23:47;13.62;;;5.03;;
13847;SDS011;6994;49.752;6.094;2023-01-31T01:26:19;15.60;;;4.57;;
13847;SDS011;6994;49.752;6.094;2023-01-31T01:28:45;15.30;;;4.28;;
13847;SDS011;6994;49.752;6.094;2023-01-31T01:31:13;14.65;;;5.22;;
13847;SDS011;6994;49.752;6.094;2023-01-31T01:33:40;15.38;;;4.25;;
13847;SDS011;6994;49.752;6.094;2023-01-31T01:36:08;13.30;;;4.15;;
13847;SDS011;6994;49.752;6.094;2023-01-31T01:38:35;12.20;;;5.07;;
13847;SDS011;6994;49.752;6.094;2023-01-31T01:41:02;20.35;;;5.75;;
13847;SDS011;6994;49.752;6.094;2023-01-31T01:43:45;21.10;;;5.15;;
13847;SDS011;6994;49.752;6.094;2023-01-31T01:46:13;11.12;;;4.57;;
13847;SDS011;6994;49.752;6.094;2023-01-31T01:48:38;22.13;;;5.75;;
13847;SDS011;6994;49.752;6.094;2023-01-31T01:51:05;12.80;;;5.03;;
13847;SDS011;6994;49.752;6.094;2023-01-31T01:53:33;8.57;;;4.37;;
13847;SDS011;6994;49.752;6.094;2023-01-31T01:56:01;17.65;;;5.32;;
13847;SDS011;6994;49.752;6.094;2023-01-31T02:00:57;23.77;;;8.30;;
13847;SDS011;6994;49.752;6.094;2023-01-31T02:03:24;17.50;;;6.00;;
13847;SDS011;6994;49.752;6.094;2023-01-31T02:05:53;10.75;;;4.97;;
13847;SDS011;6994;49.752;6.094;2023-01-31T02:08:20;11.98;;;5.00;;
13847;SDS011;6994;49.752;6.094;2023-01-31T02:10:51;14.63;;;4.60;;
13847;SDS011;6994;49.752;6.094;2023-01-31T02:13:22;22.05;;;5.15;;
13847;SDS011;6994;49.752;6.094;2023-01-31T02:15:49;24.97;;;7.97;;
13847;SDS011;6994;49.752;6.094;2023-01-31T02:18:16;19.33;;;6.68;;
13847;SDS011;6994;49.752;6.094;2023-01-31T02:24:04;17.62;;;5.28;;
13847;SDS011;6994;49.752;6.094;2023-01-31T02:29:36;18.85;;;4.70;;
13847;SDS011;6994;49.752;6.094;2023-01-31T02:32:17;27.17;;;7.57;;
13847;SDS011;6994;49.752;6.094;2023-01-31T02:37:50;25.80;;;6.12;;
13847;SDS011;6994;49.752;6.094;2023-01-31T02:40:19;16.65;;;4.25;;
13847;SDS011;6994;49.752;6.094;2023-01-31T02:43:10;15.27;;;4.57;;
13847;SDS011;6994;49.752;6.094;2023-01-31T02:48:16;23.83;;;8.33;;
13847;SDS011;6994;49.752;6.094;2023-01-31T02:51:03;28.00;;;8.88;;
13847;SDS011;6994;49.752;6.094;2023-01-31T02:53:42;17.80;;;5.50;;
13847;SDS011;6994;49.752;6.094;2023-01-31T02:55:59;16.67;;;5.07;;
13847;SDS011;6994;49.752;6.094;2023-01-31T02:59:01;14.27;;;4.62;;
13847;SDS011;6994;49.752;6.094;2023-01-31T03:01:30;17.95;;;4.57;;
13847;SDS011;6994;49.752;6.094;2023-01-31T03:03:58;24.12;;;5.05;;
13847;SDS011;6994;49.752;6.094;2023-01-31T03:08:55;24.33;;;7.73;;
13847;SDS011;6994;49.752;6.094;2023-01-31T03:11:24;17.98;;;5.20;;
13847;SDS011;6994;49.752;6.094;2023-01-31T03:16:23;22.98;;;5.85;;
13847;SDS011;6994;49.752;6.094;2023-01-31T03:19:14;16.08;;;4.95;;
13847;SDS011;6994;49.752;6.094;2023-01-31T03:21:51;17.70;;;5.30;;
13847;SDS011;6994;49.752;6.094;2023-01-31T03:24:16;14.98;;;5.22;;
13847;SDS011;6994;49.752;6.094;2023-01-31T03:26:44;22.52;;;4.87;;
13847;SDS011;6994;49.752;6.094;2023-01-31T03:29:12;20.40;;;4.37;;
13847;SDS011;6994;49.752;6.094;2023-01-31T03:31:39;18.17;;;5.82;;
13847;SDS011;6994;49.752;6.094;2023-01-31T03:34:07;16.87;;;4.62;;
13847;SDS011;6994;49.752;6.094;2023-01-31T03:36:41;18.50;;;5.18;;
13847;SDS011;6994;49.752;6.094;2023-01-31T03:39:36;20.50;;;6.70;;
13847;SDS011;6994;49.752;6.094;2023-01-31T03:44:38;14.48;;;4.85;;
13847;SDS011;6994;49.752;6.094;2023-01-31T03:47:20;12.77;;;4.55;;
13847;SDS011;6994;49.752;6.094;2023-01-31T03:49:50;17.37;;;5.68;;
13847;SDS011;6994;49.752;6.094;2023-01-31T03:52:18;15.15;;;4.62;;
13847;SDS011;6994;49.752;6.094;2023-01-31T03:54:45;13.77;;;5.10;;
13847;SDS011;6994;49.752;6.094;2023-01-31T03:57:26;15.63;;;6.18;;
13847;SDS011;6994;49.752;6.094;2023-01-31T03:59:49;17.80;;;5.22;;
13847;SDS011;6994;49.752;6.094;2023-01-31T04:02:15;18.80;;;5.68;;
13847;SDS011;6994;49.752;6.094;2023-01-31T04:04:48;13.35;;;5.50;;
13847;SDS011;6994;49.752;6.094;2023-01-31T04:07:22;20.83;;;5.68;;
13847;SDS011;6994;49.752;6.094;2023-01-31T04:09:49;14.20;;;5.32;;
13847;SDS011;6994;49.752;6.094;2023-01-31T04:12:16;27.20;;;10.40;;
13847;SDS011;6994;49.752;6.094;2023-01-31T04:14:43;19.70;;;7.45;;
13847;SDS011;6994;49.752;6.094;2023-01-31T04:17:10;23.67;;;9.02;;
13847;SDS011;6994;49.752;6.094;2023-01-31T04:19:37;20.95;;;6.22;;
13847;SDS011;6994;49.752;6.094;2023-01-31T04:22:05;23.35;;;6.47;;
13847;SDS011;6994;49.752;6.094;2023-01-31T04:24:32;14.43;;;5.87;;
13847;SDS011;6994;49.752;6.094;2023-01-31T04:26:59;24.77;;;6.70;;
13847;SDS011;6994;49.752;6.094;2023-01-31T04:29:26;16.00;;;6.70;;
13847;SDS011;6994;49.752;6.094;2023-01-31T04:31:53;23.00;;;6.90;;
13847;SDS011;6994;49.752;6.094;2023-01-31T04:34:21;16.10;;;5.87;;
13847;SDS011;6994;49.752;6.094;2023-01-31T04:36:48;14.55;;;5.30;;
13847;SDS011;6994;49.752;6.094;2023-01-31T04:39:16;25.55;;;7.80;;
13847;SDS011;6994;49.752;6.094;2023-01-31T04:41:44;16.58;;;5.75;;
13847;SDS011;6994;49.752;6.094;2023-01-31T04:44:12;20.98;;;6.93;;
13847;SDS011;6994;49.752;6.094;2023-01-31T04:46:40;19.37;;;6.72;;
13847;SDS011;6994;49.752;6.094;2023-01-31T04:49:08;20.40;;;6.60;;
13847;SDS011;6994;49.752;6.094;2023-01-31T04:51:36;17.92;;;7.50;;
13847;SDS011;6994;49.752;6.094;2023-01-31T04:54:04;18.17;;;7.35;;
13847;SDS011;6994;49.752;6.094;2023-01-31T04:56:31;19.15;;;7.75;;
13847;SDS011;6994;49.752;6.094;2023-01-31T04:58:58;20.45;;;8.15;;
13847;SDS011;6994;49.752;6.094;2023-01-31T05:01:25;23.83;;;7.93;;
13847;SDS011;6994;49.752;6.094;2023-01-31T05:03:52;18.25;;;8.38;;
13847;SDS011;6994;49.752;6.094;2023-01-31T05:06:20;30.75;;;12.60;;
13847;SDS011;6994;49.752;6.094;2023-01-31T05:08:47;29.75;;;10.10;;
13847;SDS011;6994;49.752;6.094;2023-01-31T05:11:14;33.90;;;14.83;;
13847;SDS011;6994;49.752;6.094;2023-01-31T05:13:41;21.75;;;10.15;;
13847;SDS011;6994;49.752;6.094;2023-01-31T05:16:09;28.60;;;10.45;;
13847;SDS011;6994;49.752;6.094;2023-01-31T05:18:37;27.45;;;12.65;;
13847;SDS011;6994;49.752;6.094;2023-01-31T05:21:04;20.40;;;10.23;;
13847;SDS011;6994;49.752;6.094;2023-01-31T05:23:31;33.63;;;14.55;;
13847;SDS011;6994;49.752;6.094;2023-01-31T05:25:58;23.45;;;10.52;;
13847;SDS011;6994;49.752;6.094;2023-01-31T05:28:26;23.98;;;9.30;;
13847;SDS011;6994;49.752;6.094;2023-01-31T05:30:53;21.50;;;9.40;;
13847;SDS011;6994;49.752;6.094;2023-01-31T05:33:20;26.77;;;10.13;;
13847;SDS011;6994;49.752;6.094;2023-01-31T05:35:47;21.70;;;9.25;;
13847;SDS011;6994;49.752;6.094;2023-01-31T05:38:14;25.85;;;10.50;;
13847;SDS011;6994;49.752;6.094;2023-01-31T05:40:42;18.55;;;9.07;;
13847;SDS011;6994;49.752;6.094;2023-01-31T05:43:09;18.70;;;9.40;;
13847;SDS011;6994;49.752;6.094;2023-01-31T05:45:36;19.85;;;8.73;;
13847;SDS011;6994;49.752;6.094;2023-01-31T05:48:03;16.80;;;8.57;;
13847;SDS011;6994;49.752;6.094;2023-01-31T05:50:30;16.17;;;8.38;;
13847;SDS011;6994;49.752;6.094;2023-01-31T05:52:58;20.33;;;8.90;;
13847;SDS011;6994;49.752;6.094;2023-01-31T05:55:26;20.65;;;8.68;;
13847;SDS011;6994;49.752;6.094;2023-01-31T05:57:54;17.17;;;8.30;;
13847;SDS011;6994;49.752;6.094;2023-01-31T06:00:22;24.42;;;9.77;;
13847;SDS011;6994;49.752;6.094;2023-01-31T06:02:49;13.82;;;7.93;;
13847;SDS011;6994;49.752;6.094;2023-01-31T06:05:16;18.15;;;8.32;;
13847;SDS011;6994;49.752;6.094;2023-01-31T06:07:43;19.10;;;8.02;;
13847;SDS011;6994;49.752;6.094;2023-01-31T06:10:12;25.20;;;11.95;;
13847;SDS011;6994;49.752;6.094;2023-01-31T06:12:38;25.02;;;12.90;;
13847;SDS011;6994;49.752;6.094;2023-01-31T06:15:05;25.50;;;10.48;;
13847;SDS011;6994;49.752;6.094;2023-01-31T06:17:32;20.55;;;11.40;;
13847;SDS011;6994;49.752;6.094;2023-01-31T06:19:59;21.12;;;12.32;;
13847;SDS011;6994;49.752;6.094;2023-01-31T06:22:27;18.17;;;8.77;;
13847;SDS011;6994;49.752;6.094;2023-01-31T06:24:54;19.83;;;11.48;;
13847;SDS011;6994;49.752;6.094;2023-01-31T06:27:21;19.05;;;8.95;;
13847;SDS011;6994;49.752;6.094;2023-01-31T06:29:48;21.37;;;8.32;;
13847;SDS011;6994;49.752;6.094;2023-01-31T06:32:15;21.23;;;8.45;;
13847;SDS011;6994;49.752;6.094;2023-01-31T06:34:43;13.55;;;7.25;;
13847;SDS011;6994;49.752;6.094;2023-01-31T06:37:11;13.50;;;7.43;;
13847;SDS011;6994;49.752;6.094;2023-01-31T06:39:38;20.08;;;10.95;;
13847;SDS011;6994;49.752;6.094;2023-01-31T06:42:05;16.33;;;9.20;;
13847;SDS011;6994;49.752;6.094;2023-01-31T06:44:33;19.25;;;11.15;;
13847;SDS011;6994;49.752;6.094;2023-01-31T06:47:00;16.12;;;8.32;;
13847;SDS011;6994;49.752;6.094;2023-01-31T06:49:27;18.62;;;8.60;;
13847;SDS011;6994;49.752;6.094;2023-01-31T06:51:55;15.68;;;8.32;;
13847;SDS011;6994;49.752;6.094;2023-01-31T06:54:22;14.15;;;8.52;;
13847;SDS011;6994;49.752;6.094;2023-01-31T06:56:49;18.58;;;8.30;;
13847;SDS011;6994;49.752;6.094;2023-01-31T06:59:16;19.08;;;8.73;;
13847;SDS011;6994;49.752;6.094;2023-01-31T07:01:43;13.80;;;7.43;;
13847;SDS011;6994;49.752;6.094;2023-01-31T07:04:11;17.80;;;8.23;;
13847;SDS011;6994;49.752;6.094;2023-01-31T07:06:38;13.38;;;6.90;;
13847;SDS011;6994;49.752;6.094;2023-01-31T07:09:05;12.90;;;6.32;;
13847;SDS011;6994;49.752;6.094;2023-01-31T07:11:32;14.63;;;7.50;;
13847;SDS011;6994;49.752;6.094;2023-01-31T07:13:59;10.90;;;6.15;;
13847;SDS011;6994;49.752;6.094;2023-01-31T07:16:27;12.77;;;6.18;;
13847;SDS011;6994;49.752;6.094;2023-01-31T07:18:55;26.08;;;7.62;;
13847;SDS011;6994;49.752;6.094;2023-01-31T07:21:22;16.23;;;6.65;;
13847;SDS011;6994;49.752;6.094;2023-01-31T07:23:49;11.25;;;7.03;;
13847;SDS011;6994;49.752;6.094;2023-01-31T07:26:16;13.10;;;6.45;;
13847;SDS011;6994;49.752;6.094;2023-01-31T07:28:43;14.52;;;6.93;;
13847;SDS011;6994;49.752;6.094;2023-01-31T07:31:12;12.18;;;7.53;;
13847;SDS011;6994;49.752;6.094;2023-01-31T07:33:39;17.52;;;7.07;;
13847;SDS011;6994;49.752;6.094;2023-01-31T07:36:09;10.43;;;6.37;;
13847;SDS011;6994;49.752;6.094;2023-01-31T07:38:34;15.63;;;6.30;;
13847;SDS011;6994;49.752;6.094;2023-01-31T07:41:02;10.88;;;5.97;;
13847;SDS011;6994;49.752;6.094;2023-01-31T07:43:29;9.43;;;5.05;;
13847;SDS011;6994;49.752;6.094;2023-01-31T07:45:56;9.73;;;5.75;;
13847;SDS011;6994;49.752;6.094;2023-01-31T07:48:23;9.55;;;5.82;;
13847;SDS011;6994;49.752;6.094;2023-01-31T07:50:51;10.75;;;5.40;;
13847;SDS011;6994;49.752;6.094;2023-01-31T07:53:18;13.43;;;5.25;;
13847;SDS011;6994;49.752;6.094;2023-01-31T07:55:45;9.07;;;5.50;;
13847;SDS011;6994;49.752;6.094;2023-01-31T07:58:13;9.77;;;5.72;;
13847;SDS011;6994;49.752;6.094;2023-01-31T08:00:42;9.02;;;5.97;;
13847;SDS011;6994;49.752;6.094;2023-01-31T08:03:28;7.55;;;5.22;;
13847;SDS011;6994;49.752;6.094;2023-01-31T08:06:01;8.75;;;5.62;;
13847;SDS011;6994;49.752;6.094;2023-01-31T08:08:30;11.57;;;5.32;;
13847;SDS011;6994;49.752;6.094;2023-01-31T08:10:57;11.25;;;5.00;;
13847;SDS011;6994;49.752;6.094;2023-01-31T08:13:25;11.05;;;6.03;;
13847;SDS011;6994;49.752;6.094;2023-01-31T08:15:52;12.60;;;8.40;;
13847;SDS011;6994;49.752;6.094;2023-01-31T08:18:19;11.52;;;6.60;;
13847;SDS011;6994;49.752;6.094;2023-01-31T08:20:46;12.25;;;7.72;;
13847;SDS011;6994;49.752;6.094;2023-01-31T08:23:13;10.75;;;7.75;;
13847;SDS011;6994;49.752;6.094;2023-01-31T08:25:41;14.90;;;6.90;;
13847;SDS011;6994;49.752;6.094;2023-01-31T08:28:08;9.75;;;5.50;;
13847;SDS011;6994;49.752;6.094;2023-01-31T08:30:38;8.07;;;5.28;;
13847;SDS011;6994;49.752;6.094;2023-01-31T08:33:05;6.03;;;4.57;;
13847;SDS011;6994;49.752;6.094;2023-01-31T08:35:32;5.35;;;4.30;;
13847;SDS011;6994;49.752;6.094;2023-01-31T08:37:59;8.50;;;5.20;;
13847;SDS011;6994;49.752;6.094;2023-01-31T08:40:27;5.35;;;4.45;;
13847;SDS011;6994;49.752;6.094;2023-01-31T08:42:54;9.25;;;5.70;;
13847;SDS011;6994;49.752;6.094;2023-01-31T08:45:21;8.95;;;4.57;;
13847;SDS011;6994;49.752;6.094;2023-01-31T08:47:52;8.80;;;4.70;;
13847;SDS011;6994;49.752;6.094;2023-01-31T08:50:18;9.65;;;6.37;;
13847;SDS011;6994;49.752;6.094;2023-01-31T08:52:45;9.70;;;6.25;;
13847;SDS011;6994;49.752;6.094;2023-01-31T08:55:12;6.75;;;4.93;;
13847;SDS011;6994;49.752;6.094;2023-01-31T08:57:40;7.57;;;4.35;;
13847;SDS011;6994;49.752;6.094;2023-01-31T09:00:07;7.80;;;4.82;;
13847;SDS011;6994;49.752;6.094;2023-01-31T09:02:34;9.07;;;4.37;;
13847;SDS011;6994;49.752;6.094;2023-01-31T09:05:01;9.77;;;4.50;;
13847;SDS011;6994;49.752;6.094;2023-01-31T09:07:29;8.25;;;5.20;;
13847;SDS011;6994;49.752;6.094;2023-01-31T09:09:56;7.10;;;4.00;;
13847;SDS011;6994;49.752;6.094;2023-01-31T09:12:24;8.60;;;5.53;;
13847;SDS011;6994;49.752;6.094;2023-01-31T09:14:51;12.35;;;5.07;;
13847;SDS011;6994;49.752;6.094;2023-01-31T09:17:18;8.90;;;5.00;;
13847;SDS011;6994;49.752;6.094;2023-01-31T09:19:45;10.40;;;4.90;;
13847;SDS011;6994;49.752;6.094;2023-01-31T09:22:13;7.18;;;4.90;;
13847;SDS011;6994;49.752;6.094;2023-01-31T09:24:40;8.10;;;4.82;;
13847;SDS011;6994;49.752;6.094;2023-01-31T09:27:08;7.45;;;5.12;;
13847;SDS011;6994;49.752;6.094;2023-01-31T09:29:36;6.97;;;4.37;;
13847;SDS011;6994;49.752;6.094;2023-01-31T09:32:03;9.70;;;5.05;;
13847;SDS011;6994;49.752;6.094;2023-01-31T09:34:30;8.05;;;4.80;;
13847;SDS011;6994;49.752;6.094;2023-01-31T09:36:57;4.93;;;4.12;;
13847;SDS011;6994;49.752;6.094;2023-01-31T09:39:24;7.87;;;5.22;;
13847;SDS011;6994;49.752;6.094;2023-01-31T09:41:53;7.22;;;4.40;;
13847;SDS011;6994;49.752;6.094;2023-01-31T09:44:20;8.32;;;5.25;;
13847;SDS011;6994;49.752;6.094;2023-01-31T09:47:01;6.70;;;4.45;;
13847;SDS011;6994;49.752;6.094;2023-01-31T09:49:26;13.32;;;5.62;;
13847;SDS011;6994;49.752;6.094;2023-01-31T09:51:54;8.93;;;4.80;;
13847;SDS011;6994;49.752;6.094;2023-01-31T09:54:27;9.52;;;5.30;;
13847;SDS011;6994;49.752;6.094;2023-01-31T09:56:58;14.23;;;7.85;;
13847;SDS011;6994;49.752;6.094;2023-01-31T09:59:21;12.30;;;6.60;;
13847;SDS011;6994;49.752;6.094;2023-01-31T10:01:54;10.65;;;6.20;;
13847;SDS011;6994;49.752;6.094;2023-01-31T10:07:45;13.15;;;8.32;;
13847;SDS011;6994;49.752;6.094;2023-01-31T10:09:53;13.70;;;7.05;;
13847;SDS011;6994;49.752;6.094;2023-01-31T10:12:33;12.30;;;6.45;;
13847;SDS011;6994;49.752;6.094;2023-01-31T10:15:02;10.68;;;5.80;;
13847;SDS011;6994;49.752;6.094;2023-01-31T10:17:42;15.45;;;8.18;;
13847;SDS011;6994;49.752;6.094;2023-01-31T10:20:20;10.75;;;6.75;;
13847;SDS011;6994;49.752;6.094;2023-01-31T10:22:57;9.38;;;5.60;;
13847;SDS011;6994;49.752;6.094;2023-01-31T10:30:42;9.20;;;6.20;;
13847;SDS011;6994;49.752;6.094;2023-01-31T10:33:15;12.55;;;8.27;;
13847;SDS011;6994;49.752;6.094;2023-01-31T10:35:38;10.95;;;6.07;;
13847;SDS011;6994;49.752;6.094;2023-01-31T10:38:04;8.93;;;5.70;;
13847;SDS011;6994;49.752;6.094;2023-01-31T10:43:02;11.12;;;5.55;;
13847;SDS011;6994;49.752;6.094;2023-01-31T10:45:27;9.93;;;5.85;;
13847;SDS011;6994;49.752;6.094;2023-01-31T10:48:00;10.18;;;6.05;;
13847;SDS011;6994;49.752;6.094;2023-01-31T10:54:03;16.25;;;7.55;;
13847;SDS011;6994;49.752;6.094;2023-01-31T10:59:04;13.05;;;7.12;;
13847;SDS011;6994;49.752;6.094;2023-01-31T11:01:29;11.15;;;6.53;;
13847;SDS011;6994;49.752;6.094;2023-01-31T11:03:56;9.05;;;6.00;;
13847;SDS011;6994;49.752;6.094;2023-01-31T11:06:23;15.40;;;9.00;;
13847;SDS011;6994;49.752;6.094;2023-01-31T11:08:58;13.75;;;7.47;;
13847;SDS011;6994;49.752;6.094;2023-01-31T11:11:24;13.73;;;7.28;;
13847;SDS011;6994;49.752;6.094;2023-01-31T11:14:15;14.02;;;6.97;;
13847;SDS011;6994;49.752;6.094;2023-01-31T11:16:22;15.50;;;8.88;;
13847;SDS011;6994;49.752;6.094;2023-01-31T11:18:50;14.00;;;7.30;;
13847;SDS011;6994;49.752;6.094;2023-01-31T11:21:26;17.52;;;9.63;;
13847;SDS011;6994;49.752;6.094;2023-01-31T11:24:00;21.10;;;7.80;;
13847;SDS011;6994;49.752;6.094;2023-01-31T11:26:24;13.57;;;6.07;;
13847;SDS011;6994;49.752;6.094;2023-01-31T11:28:51;10.43;;;6.82;;
13847;SDS011;6994;49.752;6.094;2023-01-31T11:31:19;12.23;;;6.90;;
13847;SDS011;6994;49.752;6.094;2023-01-31T11:33:54;11.50;;;7.00;;
13847;SDS011;6994;49.752;6.094;2023-01-31T11:36:14;13.10;;;7.07;;
13847;SDS011;6994;49.752;6.094;2023-01-31T11:38:40;11.98;;;6.03;;
13847;SDS011;6994;49.752;6.094;2023-01-31T11:41:24;16.15;;;6.72;;
13847;SDS011;6994;49.752;6.094;2023-01-31T11:46:32;11.48;;;6.18;;
13847;SDS011;6994;49.752;6.094;2023-01-31T11:48:58;7.55;;;5.37;;
13847;SDS011;6994;49.752;6.094;2023-01-31T11:51:27;13.68;;;7.45;;
13847;SDS011;6994;49.752;6.094;2023-01-31T11:53:53;14.07;;;9.48;;
13847;SDS011;6994;49.752;6.094;2023-01-31T11:56:26;16.55;;;9.13;;
13847;SDS011;6994;49.752;6.094;2023-01-31T11:58:54;15.05;;;7.40;;
13847;SDS011;6994;49.752;6.094;2023-01-31T12:01:22;13.73;;;7.45;;
13847;SDS011;6994;49.752;6.094;2023-01-31T12:03:58;14.00;;;7.43;;
13847;SDS011;6994;49.752;6.094;2023-01-31T12:06:28;10.70;;;7.15;;
13847;SDS011;6994;49.752;6.094;2023-01-31T12:09:02;14.80;;;8.55;;
13847;SDS011;6994;49.752;6.094;2023-01-31T12:11:29;16.75;;;8.25;;
13847;SDS011;6994;49.752;6.094;2023-01-31T12:14:05;13.10;;;8.10;;
13847;SDS011;6994;49.752;6.094;2023-01-31T12:16:28;13.38;;;7.28;;
13847;SDS011;6994;49.752;6.094;2023-01-31T12:21:28;13.15;;;8.55;;
13847;SDS011;6994;49.752;6.094;2023-01-31T12:24:17;11.48;;;7.97;;
13847;SDS011;6994;49.752;6.094;2023-01-31T12:26:56;16.08;;;10.52;;
13847;SDS011;6994;49.752;6.094;2023-01-31T12:32:20;15.93;;;10.57;;
13847;SDS011;6994;49.752;6.094;2023-01-31T12:35:03;14.00;;;7.45;;
13847;SDS011;6994;49.752;6.094;2023-01-31T12:40:36;11.00;;;6.35;;
13847;SDS011;6994;49.752;6.094;2023-01-31T12:43:28;11.43;;;7.30;;
13847;SDS011;6994;49.752;6.094;2023-01-31T12:45:59;10.27;;;7.25;;
13847;SDS011;6994;49.752;6.094;2023-01-31T12:51:04;20.00;;;11.68;;
13847;SDS011;6994;49.752;6.094;2023-01-31T12:56:10;17.80;;;9.48;;
13847;SDS011;6994;49.752;6.094;2023-01-31T13:01:35;15.75;;;12.68;;
13847;SDS011;6994;49.752;6.094;2023-01-31T13:04:14;15.90;;;9.82;;
13847;SDS011;6994;49.752;6.094;2023-01-31T13:06:44;17.75;;;10.02;;
13847;SDS011;6994;49.752;6.094;2023-01-31T13:09:11;14.18;;;9.60;;
13847;SDS011;6994;49.752;6.094;2023-01-31T13:11:48;14.55;;;8.25;;
13847;SDS011;6994;49.752;6.094;2023-01-31T13:14:16;13.10;;;8.68;;
13847;SDS011;6994;49.752;6.094;2023-01-31T13:16:42;9.77;;;7.70;;
13847;SDS011;6994;49.752;6.094;2023-01-31T13:19:17;12.35;;;7.60;;
13847;SDS011;6994;49.752;6.094;2023-01-31T13:21:45;12.02;;;7.40;;
13847;SDS011;6994;49.752;6.094;2023-01-31T13:24:12;9.65;;;7.80;;
13847;SDS011;6994;49.752;6.094;2023-01-31T13:26:47;11.05;;;7.87;;
13847;SDS011;6994;49.752;6.094;2023-01-31T13:29:15;9.15;;;6.72;;
13847;SDS011;6994;49.752;6.094;2023-01-31T13:31:44;10.10;;;8.60;;
13847;SDS011;6994;49.752;6.094;2023-01-31T13:34:17;10.65;;;7.43;;
13847;SDS011;6994;49.752;6.094;2023-01-31T13:37:01;11.77;;;7.65;;
13847;SDS011;6994;49.752;6.094;2023-01-31T13:39:31;9.57;;;7.15;;
13847;SDS011;6994;49.752;6.094;2023-01-31T13:41:56;8.48;;;7.00;;
13847;SDS011;6994;49.752;6.094;2023-01-31T13:44:23;8.90;;;5.82;;
13847;SDS011;6994;49.752;6.094;2023-01-31T13:46:52;7.28;;;5.10;;
13847;SDS011;6994;49.752;6.094;2023-01-31T13:51:52;8.15;;;6.18;;
13847;SDS011;6994;49.752;6.094;2023-01-31T13:54:25;7.28;;;4.15;;
13847;SDS011;6994;49.752;6.094;2023-01-31T13:56:54;5.45;;;3.60;;
13847;SDS011;6994;49.752;6.094;2023-01-31T13:59:26;6.87;;;5.03;;
13847;SDS011;6994;49.752;6.094;2023-01-31T14:01:49;7.32;;;5.03;;
13847;SDS011;6994;49.752;6.094;2023-01-31T14:09:22;9.00;;;5.70;;
13847;SDS011;6994;49.752;6.094;2023-01-31T14:11:51;10.90;;;7.30;;
13847;SDS011;6994;49.752;6.094;2023-01-31T14:14:19;7.65;;;5.20;;
13847;SDS011;6994;49.752;6.094;2023-01-31T14:16:46;9.10;;;4.82;;
13847;SDS011;6994;49.752;6.094;2023-01-31T14:21:52;6.68;;;5.50;;
13847;SDS011;6994;49.752;6.094;2023-01-31T14:27:25;7.37;;;5.68;;
13847;SDS011;6994;49.752;6.094;2023-01-31T14:29:53;7.37;;;4.95;;
13847;SDS011;6994;49.752;6.094;2023-01-31T14:32:15;6.40;;;5.30;;
13847;SDS011;6994;49.752;6.094;2023-01-31T14:34:46;4.93;;;4.43;;
13847;SDS011;6994;49.752;6.094;2023-01-31T14:37:23;8.02;;;4.97;;
13847;SDS011;6994;49.752;6.094;2023-01-31T14:39:46;3.87;;;3.40;;
13847;SDS011;6994;49.752;6.094;2023-01-31T14:42:30;5.40;;;4.10;;
13847;SDS011;6994;49.752;6.094;2023-01-31T14:48:10;7.07;;;5.30;;
13847;SDS011;6994;49.752;6.094;2023-01-31T14:51:00;4.45;;;3.33;;
13847;SDS011;6994;49.752;6.094;2023-01-31T14:56:43;6.10;;;3.05;;
13847;SDS011;6994;49.752;6.094;2023-01-31T14:59:18;3.95;;;3.35;;
13847;SDS011;6994;49.752;6.094;2023-01-31T15:01:34;4.55;;;3.47;;
13847;SDS011;6994;49.752;6.094;2023-01-31T15:04:01;6.50;;;2.95;;
13847;SDS011;6994;49.752;6.094;2023-01-31T15:06:33;5.47;;;3.25;;
13847;SDS011;6994;49.752;6.094;2023-01-31T15:11:52;4.40;;;3.37;;
13847;SDS011;6994;49.752;6.094;2023-01-31T15:19:44;2.75;;;2.33;;
13847;SDS011;6994;49.752;6.094;2023-01-31T15:22:16;7.93;;;3.42;;
13847;SDS011;6994;49.752;6.094;2023-01-31T15:24:44;6.75;;;4.55;;
13847;SDS011;6994;49.752;6.094;2023-01-31T15:27:34;8.02;;;4.20;;
13847;SDS011;6994;49.752;6.094;2023-01-31T15:32:46;6.00;;;3.70;;
13847;SDS011;6994;49.752;6.094;2023-01-31T15:37:58;10.68;;;5.40;;
13847;SDS011;6994;49.752;6.094;2023-01-31T15:40:26;9.25;;;4.72;;
13847;SDS011;6994;49.752;6.094;2023-01-31T15:42:53;4.37;;;3.33;;
13847;SDS011;6994;49.752;6.094;2023-01-31T15:45:24;6.43;;;4.22;;
13847;SDS011;6994;49.752;6.094;2023-01-31T15:47:58;7.45;;;4.00;;
13847;SDS011;6994;49.752;6.094;2023-01-31T15:50:21;7.97;;;3.80;;
13847;SDS011;6994;49.752;6.094;2023-01-31T15:52:48;5.50;;;3.97;;
13847;SDS011;6994;49.752;6.094;2023-01-31T15:55:17;5.62;;;3.85;;
13847;SDS011;6994;49.752;6.094;2023-01-31T15:57:50;7.78;;;4.55;;
13847;SDS011;6994;49.752;6.094;2023-01-31T16:00:19;6.18;;;4.35;;
13847;SDS011;6994;49.752;6.094;2023-01-31T16:02:46;6.22;;;4.32;;
13847;SDS011;6994;49.752;6.094;2023-01-31T16:05:20;5.90;;;3.97;;
13847;SDS011;6994;49.752;6.094;2023-01-31T16:07:45;6.50;;;4.53;;
13847;SDS011;6994;49.752;6.094;2023-01-31T16:10:10;6.97;;;4.82;;
13847;SDS011;6994;49.752;6.094;2023-01-31T16:12:39;11.63;;;6.43;;
13847;SDS011;6994;49.752;6.094;2023-01-31T16:15:05;11.32;;;5.50;;
13847;SDS011;6994;49.752;6.094;2023-01-31T16:17:32;14.95;;;4.62;;
13847;SDS011;6994;49.752;6.094;2023-01-31T16:19:59;7.35;;;4.37;;
13847;SDS011;6994;49.752;6.094;2023-01-31T16:22:27;9.00;;;6.05;;
13847;SDS011;6994;49.752;6.094;2023-01-31T16:24:54;6.90;;;4.47;;
13847;SDS011;6994;49.752;6.094;2023-01-31T16:27:21;7.43;;;4.50;;
13847;SDS011;6994;49.752;6.094;2023-01-31T16:29:49;7.60;;;5.00;;
13847;SDS011;6994;49.752;6.094;2023-01-31T16:32:22;11.40;;;4.68;;